createdAt,value
2023-10-25T00:03:42.319Z,9.73
2023-10-25T00:08:46.248Z,8.95
2023-10-25T00:13:51.087Z,9.18
2023-10-25T00:18:56.238Z,10.82
2023-10-25T00:24:00.048Z,8.45
2023-10-25T00:29:04.164Z,8.95
2023-10-25T00:34:09.257Z,9.05
2023-10-25T00:39:13.231Z,6.93
2023-10-25T00:44:16.932Z,10.32
2023-10-25T00:49:22.158Z,9.55
2023-10-25T00:59:32.134Z,9.38
2023-10-25T01:04:37.569Z,9.35
2023-10-25T01:09:41.647Z,8.63
2023-10-25T01:14:45.693Z,7.97
2023-10-25T01:19:50.834Z,9.02
2023-10-25T01:24:55.925Z,6.43
2023-10-25T01:29:59.755Z,8.18
2023-10-25T01:35:03.586Z,9.32
2023-10-25T01:40:10.343Z,9.23
2023-10-25T01:45:14.173Z,9.63
2023-10-25T01:50:19.345Z,10.05
2023-10-25T01:55:25.902Z,11.38
2023-10-25T02:00:29.937Z,11.35
2023-10-25T02:05:33.758Z,12.93
2023-10-25T02:10:39.569Z,14.10
2023-10-25T02:15:43.309Z,11.88
2023-10-25T02:20:47.291Z,10.65
2023-10-25T02:25:52.400Z,12.60
2023-10-25T02:30:56.103Z,11.98
2023-10-25T02:35:59.999Z,11.32
2023-10-25T02:41:05.479Z,11.73
2023-10-25T02:46:10.453Z,11.00
2023-10-25T02:51:14.619Z,10.90
2023-10-25T02:56:20.889Z,10.70
2023-10-25T03:01:26.041Z,12.60
2023-10-25T03:11:35.806Z,11.30
2023-10-25T03:16:39.887Z,10.82
2023-10-25T03:21:43.712Z,11.23
2023-10-25T03:26:49.234Z,12.38
2023-10-25T03:31:54.901Z,11.70
2023-10-25T03:36:58.743Z,13.15
2023-10-25T03:42:04.933Z,12.70
2023-10-25T03:47:08.675Z,12.70
2023-10-25T03:52:13.660Z,12.40
2023-10-25T03:57:18.812Z,11.57
2023-10-25T04:02:22.532Z,15.55
2023-10-25T04:07:26.304Z,11.63
2023-10-25T04:12:32.015Z,10.57
2023-10-25T04:17:35.878Z,11.52
2023-10-25T04:22:39.640Z,11.65
2023-10-25T04:27:45.518Z,12.10
2023-10-25T04:32:49.262Z,11.07
2023-10-25T04:37:54.209Z,12.45
2023-10-25T04:42:59.415Z,11.18
2023-10-25T04:48:03.682Z,11.30
2023-10-25T04:53:08.082Z,12.32
2023-10-25T04:58:13.364Z,13.23
2023-10-25T05:08:21.678Z,10.98
2023-10-25T05:13:27.553Z,14.52
2023-10-25T05:18:32.612Z,12.75
2023-10-25T05:23:36.815Z,12.25
2023-10-25T05:28:42.707Z,11.73
2023-10-25T05:33:46.927Z,10.18
2023-10-25T05:38:51.627Z,10.88
2023-10-25T05:44:04.743Z,13.75
2023-10-25T05:49:09.468Z,11.73
2023-10-25T05:54:14.640Z,12.35
2023-10-25T05:59:20.838Z,12.15
2023-10-25T06:04:25.574Z,12.57
2023-10-25T06:09:30.185Z,15.68
2023-10-25T06:14:35.542Z,15.85
2023-10-25T06:24:42.970Z,13.75
2023-10-25T06:34:53.103Z,15.30
2023-10-25T06:39:57.612Z,16.33
2023-10-25T06:45:03.640Z,14.80
2023-10-25T06:50:09.215Z,14.70
2023-10-25T06:55:15.899Z,15.23
2023-10-25T07:00:23.341Z,16.85
2023-10-25T07:05:27.519Z,17.80
2023-10-25T07:10:32.698Z,18.40
2023-10-25T07:25:45.808Z,14.75
2023-10-25T07:30:51.481Z,16.48
2023-10-25T07:35:55.357Z,14.65
2023-10-25T07:40:59.179Z,15.30
2023-10-25T07:46:05.377Z,15.27
2023-10-25T07:51:09.116Z,16.50
2023-10-25T08:01:21.415Z,14.18
2023-10-25T08:06:25.354Z,13.73
2023-10-25T08:11:29.417Z,13.77
2023-10-25T08:16:40.014Z,13.93
2023-10-25T08:21:43.789Z,13.27
2023-10-25T08:26:47.559Z,15.63
2023-10-25T08:31:54.035Z,14.13
2023-10-25T08:36:58.532Z,14.80
2023-10-25T08:42:03.696Z,11.80
2023-10-25T08:52:14.981Z,15.57
2023-10-25T08:57:19.558Z,15.48
2023-10-25T09:02:24.766Z,14.10
2023-10-25T09:07:30.330Z,14.93
2023-10-25T09:12:34.552Z,13.82
2023-10-25T09:17:40.925Z,12.80
2023-10-25T09:22:45.190Z,13.93
2023-10-25T09:27:48.957Z,13.65
2023-10-25T09:32:54.276Z,12.57
2023-10-25T09:37:58.195Z,10.95
2023-10-25T09:43:10.182Z,11.13
2023-10-25T09:48:17.613Z,12.63
2023-10-25T09:53:27.692Z,10.60
2023-10-25T09:58:34.553Z,10.32
2023-10-25T10:03:47.628Z,10.25
2023-10-25T10:08:57.923Z,9.23
2023-10-25T10:14:31.069Z,11.35
2023-10-25T10:19:39.379Z,12.57
2023-10-25T10:24:45.396Z,13.35
2023-10-25T10:29:50.148Z,11.35
2023-10-25T10:34:58.737Z,12.20
2023-10-25T10:40:15.564Z,10.68
2023-10-25T10:45:21.042Z,10.85
2023-10-25T10:50:27.245Z,10.68
2023-10-25T10:55:31.603Z,9.00
2023-10-25T11:00:35.677Z,8.40
2023-10-25T11:05:40.962Z,8.43
2023-10-25T11:10:45.014Z,7.53
2023-10-25T11:15:49.083Z,9.75
2023-10-25T11:20:54.292Z,7.85
2023-10-25T11:31:03.556Z,7.30
2023-10-25T11:36:08.743Z,6.88
2023-10-25T11:46:16.916Z,7.00
2023-10-25T11:51:22.046Z,5.37
2023-10-25T12:01:29.584Z,6.07
2023-10-25T12:06:36.342Z,5.22
2023-10-25T12:11:40.797Z,4.60
2023-10-25T12:16:46.786Z,4.13
2023-10-25T12:22:01.252Z,4.78
2023-10-25T12:27:06.308Z,6.03
2023-10-25T12:32:10.303Z,4.38
2023-10-25T12:37:15.551Z,3.23
2023-10-25T12:47:23.692Z,3.08
2023-10-25T12:52:28.834Z,2.53
2023-10-25T13:02:36.238Z,2.95
2023-10-25T13:07:44.256Z,2.42
2023-10-25T13:12:48.289Z,2.70
2023-10-25T13:17:52.090Z,2.38
2023-10-25T13:23:00.869Z,2.45
2023-10-25T13:28:05.070Z,2.10
2023-10-25T13:33:09.323Z,2.22
2023-10-25T13:38:14.750Z,2.77
2023-10-25T13:43:18.763Z,2.10
2023-10-25T13:48:22.602Z,2.22
2023-10-25T13:53:28.158Z,2.10
2023-10-25T14:03:36.146Z,1.93
2023-10-25T14:08:41.360Z,2.10
2023-10-25T14:18:49.688Z,2.00
2023-10-25T14:23:54.903Z,1.70
2023-10-25T14:34:02.737Z,1.88
2023-10-25T14:39:09.222Z,2.50
2023-10-25T14:44:13.287Z,2.53
2023-10-25T14:49:17.416Z,2.80
2023-10-25T14:54:22.562Z,2.30
2023-10-25T14:59:33.032Z,3.63
2023-10-25T15:04:36.837Z,5.35
2023-10-25T15:09:44.488Z,2.50
2023-10-25T15:14:53.724Z,2.30
2023-10-25T15:19:58.119Z,2.65
2023-10-25T15:25:04.610Z,2.17
2023-10-25T15:30:11.055Z,2.53
2023-10-25T15:35:15.338Z,2.28
2023-10-25T15:40:25.024Z,1.88
2023-10-25T15:45:33.675Z,2.50
2023-10-25T15:50:37.597Z,2.73
2023-10-25T15:55:42.924Z,2.80
2023-10-25T16:00:46.782Z,3.20
2023-10-25T16:05:50.584Z,3.47
2023-10-25T16:10:57.813Z,3.15
2023-10-25T16:16:04.422Z,3.28
2023-10-25T16:21:08.638Z,5.15
2023-10-25T16:26:15.261Z,4.73
2023-10-25T16:31:21.412Z,6.70
2023-10-25T16:36:25.624Z,6.47
2023-10-25T16:41:30.992Z,7.07
2023-10-25T16:51:38.454Z,7.72
2023-10-25T16:56:43.828Z,9.20
2023-10-25T17:01:47.950Z,7.65
2023-10-25T17:06:51.910Z,8.95
2023-10-25T17:11:57.376Z,9.52
2023-10-25T17:17:01.295Z,9.27
2023-10-25T17:22:05.096Z,9.10
2023-10-25T17:27:11.174Z,10.30
2023-10-25T17:32:15.511Z,8.90
2023-10-25T17:37:19.147Z,9.80
2023-10-25T17:42:24.356Z,9.50
2023-10-25T17:47:29.374Z,10.15
2023-10-25T17:52:43.574Z,10.02
2023-10-25T17:57:51.004Z,9.57
2023-10-25T18:02:54.802Z,9.48
2023-10-25T18:07:58.724Z,9.55
2023-10-25T18:13:03.775Z,10.57
2023-10-25T18:18:08.598Z,9.43
2023-10-25T18:23:12.966Z,9.93
2023-10-25T18:28:18.025Z,10.18
2023-10-25T18:33:23.406Z,9.98
2023-10-25T18:38:27.394Z,9.10
2023-10-25T18:43:32.908Z,10.38
2023-10-25T18:53:40.399Z,10.77
2023-10-25T18:58:45.966Z,11.57
2023-10-25T19:03:50.338Z,12.20
2023-10-25T19:08:55.443Z,12.38
2023-10-25T19:14:00.821Z,11.88
2023-10-25T19:19:05.181Z,11.93
2023-10-25T19:24:09.343Z,12.13
2023-10-25T19:29:15.506Z,12.80
2023-10-25T19:34:19.909Z,12.75
2023-10-25T19:39:23.531Z,11.93
2023-10-25T19:44:29.163Z,12.48
2023-10-25T19:49:33.175Z,11.00
2023-10-25T19:54:37.510Z,11.05
2023-10-25T19:59:44.327Z,12.60
2023-10-25T20:04:48.169Z,13.23
2023-10-25T20:09:52.264Z,12.68
2023-10-25T20:14:58.492Z,12.77
2023-10-25T20:20:02.233Z,10.50
2023-10-25T20:25:07.220Z,11.63
2023-10-25T20:30:12.911Z,10.70
2023-10-25T20:35:16.844Z,10.90
2023-10-25T20:40:20.558Z,9.85
2023-10-25T20:45:25.582Z,11.55
2023-10-25T20:50:29.726Z,10.73
2023-10-25T20:55:33.980Z,10.35
2023-10-25T21:00:41.893Z,11.15
2023-10-25T21:05:45.784Z,10.27
2023-10-25T21:10:50.149Z,10.00
2023-10-25T21:15:55.463Z,11.73
2023-10-25T21:20:59.689Z,11.77
2023-10-25T21:26:07.535Z,9.60
2023-10-25T21:31:12.827Z,10.18
2023-10-25T21:46:27.311Z,10.23
2023-10-25T21:51:31.206Z,10.55
2023-10-25T21:56:34.940Z,9.13
2023-10-25T22:01:46.471Z,10.05
2023-10-25T22:06:50.707Z,8.93
2023-10-25T22:11:55.007Z,9.17
2023-10-25T22:17:00.822Z,8.70
2023-10-25T22:22:04.905Z,10.30
2023-10-25T22:27:09.793Z,10.35
2023-10-25T22:32:15.262Z,8.65
2023-10-25T22:42:22.595Z,8.05
2023-10-25T22:47:28.087Z,9.20
2023-10-25T22:52:31.778Z,9.27
2023-10-25T22:57:35.415Z,8.80
2023-10-25T23:02:40.655Z,9.82
2023-10-25T23:12:48.459Z,8.32
2023-10-25T23:17:53.476Z,9.07
2023-10-25T23:22:57.184Z,9.13
2023-10-25T23:28:01.014Z,7.80
2023-10-25T23:33:06.209Z,8.20
2023-10-25T23:38:09.860Z,8.30
2023-10-25T23:43:13.529Z,8.55
2023-10-25T23:48:18.991Z,8.27
2023-10-25T23:53:23.359Z,9.13
2023-10-25T23:58:27.099Z,8.98
